sensor_id;sensor_type;location;lat;lon;timestamp;P1;durP1;ratioP1;P2;durP2;ratioP2
27201;SDS011;14717;46.924;15.474;2022-08-03T00:01:45;4.43;;;3.17;;
27201;SDS011;14717;46.924;15.474;2022-08-03T00:04:10;6.43;;;3.40;;
27201;SDS011;14717;46.924;15.474;2022-08-03T00:06:35;6.70;;;3.30;;
27201;SDS011;14717;46.924;15.474;2022-08-03T00:09:02;6.68;;;2.95;;
27201;SDS011;14717;46.924;15.474;2022-08-03T00:11:29;4.70;;;3.30;;
27201;SDS011;14717;46.924;15.474;2022-08-03T00:13:54;5.28;;;3.00;;
27201;SDS011;14717;46.924;15.474;2022-08-03T00:16:19;4.15;;;2.88;;
27201;SDS011;14717;46.924;15.474;2022-08-03T00:18:45;4.32;;;2.60;;
27201;SDS011;14717;46.924;15.474;2022-08-03T00:21:10;3.70;;;2.70;;
27201;SDS011;14717;46.924;15.474;2022-08-03T00:23:36;4.38;;;2.97;;
27201;SDS011;14717;46.924;15.474;2022-08-03T00:26:01;5.93;;;3.03;;
27201;SDS011;14717;46.924;15.474;2022-08-03T00:28:27;4.13;;;2.80;;
27201;SDS011;14717;46.924;15.474;2022-08-03T00:30:53;4.68;;;2.88;;
27201;SDS011;14717;46.924;15.474;2022-08-03T00:33:19;3.95;;;2.50;;
27201;SDS011;14717;46.924;15.474;2022-08-03T00:35:45;5.43;;;3.13;;
27201;SDS011;14717;46.924;15.474;2022-08-03T00:38:11;5.63;;;2.80;;
27201;SDS011;14717;46.924;15.474;2022-08-03T00:40:36;5.40;;;3.05;;
27201;SDS011;14717;46.924;15.474;2022-08-03T00:43:02;4.18;;;2.22;;
27201;SDS011;14717;46.924;15.474;2022-08-03T00:45:30;6.13;;;2.60;;
27201;SDS011;14717;46.924;15.474;2022-08-03T00:47:57;5.15;;;2.92;;
27201;SDS011;14717;46.924;15.474;2022-08-03T00:50:24;5.63;;;3.00;;
27201;SDS011;14717;46.924;15.474;2022-08-03T00:52:51;4.65;;;2.75;;
27201;SDS011;14717;46.924;15.474;2022-08-03T00:55:18;4.13;;;2.72;;
27201;SDS011;14717;46.924;15.474;2022-08-03T00:57:44;5.03;;;2.78;;
27201;SDS011;14717;46.924;15.474;2022-08-03T01:00:10;5.28;;;2.60;;
27201;SDS011;14717;46.924;15.474;2022-08-03T01:02:38;6.05;;;2.75;;
27201;SDS011;14717;46.924;15.474;2022-08-03T01:05:04;5.60;;;3.00;;
27201;SDS011;14717;46.924;15.474;2022-08-03T01:07:36;5.55;;;2.42;;
27201;SDS011;14717;46.924;15.474;2022-08-03T01:10:27;4.82;;;2.70;;
27201;SDS011;14717;46.924;15.474;2022-08-03T01:34:58;6.35;;;2.83;;
27201;SDS011;14717;46.924;15.474;2022-08-03T01:37:31;5.88;;;3.03;;
27201;SDS011;14717;46.924;15.474;2022-08-03T01:40:02;5.82;;;3.00;;
27201;SDS011;14717;46.924;15.474;2022-08-03T01:42:30;4.05;;;2.60;;
27201;SDS011;14717;46.924;15.474;2022-08-03T01:44:56;4.15;;;2.60;;
27201;SDS011;14717;46.924;15.474;2022-08-03T01:47:26;6.57;;;2.63;;
27201;SDS011;14717;46.924;15.474;2022-08-03T01:49:53;5.40;;;2.85;;
27201;SDS011;14717;46.924;15.474;2022-08-03T01:52:21;4.03;;;2.75;;
27201;SDS011;14717;46.924;15.474;2022-08-03T01:54:49;5.50;;;2.90;;
27201;SDS011;14717;46.924;15.474;2022-08-03T01:57:16;6.22;;;2.78;;
27201;SDS011;14717;46.924;15.474;2022-08-03T01:59:43;5.22;;;2.90;;
27201;SDS011;14717;46.924;15.474;2022-08-03T02:02:11;4.88;;;2.42;;
27201;SDS011;14717;46.924;15.474;2022-08-03T02:04:38;5.10;;;2.83;;
27201;SDS011;14717;46.924;15.474;2022-08-03T02:07:06;5.75;;;2.95;;
27201;SDS011;14717;46.924;15.474;2022-08-03T02:09:35;5.50;;;3.15;;
27201;SDS011;14717;46.924;15.474;2022-08-03T02:12:03;5.97;;;2.90;;
27201;SDS011;14717;46.924;15.474;2022-08-03T02:14:35;4.25;;;2.53;;
27201;SDS011;14717;46.924;15.474;2022-08-03T02:17:03;4.68;;;2.58;;
27201;SDS011;14717;46.924;15.474;2022-08-03T02:19:29;5.30;;;2.63;;
27201;SDS011;14717;46.924;15.474;2022-08-03T02:21:56;6.85;;;2.80;;
27201;SDS011;14717;46.924;15.474;2022-08-03T02:24:22;4.63;;;2.92;;
27201;SDS011;14717;46.924;15.474;2022-08-03T02:26:48;4.68;;;2.78;;
27201;SDS011;14717;46.924;15.474;2022-08-03T02:29:20;4.85;;;2.58;;
27201;SDS011;14717;46.924;15.474;2022-08-03T02:31:53;5.55;;;2.42;;
27201;SDS011;14717;46.924;15.474;2022-08-03T02:34:24;4.57;;;2.50;;
27201;SDS011;14717;46.924;15.474;2022-08-03T02:36:52;4.05;;;2.30;;
27201;SDS011;14717;46.924;15.474;2022-08-03T02:39:24;4.95;;;2.38;;
27201;SDS011;14717;46.924;15.474;2022-08-03T02:41:53;6.00;;;3.22;;
27201;SDS011;14717;46.924;15.474;2022-08-03T02:44:26;5.25;;;2.72;;
27201;SDS011;14717;46.924;15.474;2022-08-03T02:46:57;3.75;;;2.55;;
27201;SDS011;14717;46.924;15.474;2022-08-03T02:49:27;3.80;;;2.75;;
27201;SDS011;14717;46.924;15.474;2022-08-03T02:51:55;6.43;;;2.30;;
27201;SDS011;14717;46.924;15.474;2022-08-03T02:54:23;6.85;;;2.47;;
27201;SDS011;14717;46.924;15.474;2022-08-03T02:56:51;5.85;;;2.70;;
27201;SDS011;14717;46.924;15.474;2022-08-03T02:59:18;5.22;;;2.95;;
27201;SDS011;14717;46.924;15.474;2022-08-03T03:01:45;5.53;;;2.67;;
27201;SDS011;14717;46.924;15.474;2022-08-03T03:04:12;4.38;;;2.60;;
27201;SDS011;14717;46.924;15.474;2022-08-03T03:06:39;4.38;;;2.70;;
27201;SDS011;14717;46.924;15.474;2022-08-03T03:09:05;4.25;;;2.80;;
27201;SDS011;14717;46.924;15.474;2022-08-03T03:11:32;5.75;;;2.88;;
27201;SDS011;14717;46.924;15.474;2022-08-03T03:14:02;4.78;;;2.75;;
27201;SDS011;14717;46.924;15.474;2022-08-03T03:16:28;7.18;;;2.83;;
27201;SDS011;14717;46.924;15.474;2022-08-03T03:18:55;4.80;;;2.55;;
27201;SDS011;14717;46.924;15.474;2022-08-03T03:21:22;4.65;;;2.80;;
27201;SDS011;14717;46.924;15.474;2022-08-03T03:23:47;6.40;;;2.45;;
27201;SDS011;14717;46.924;15.474;2022-08-03T03:26:13;5.40;;;2.67;;
27201;SDS011;14717;46.924;15.474;2022-08-03T03:28:40;3.67;;;2.40;;
27201;SDS011;14717;46.924;15.474;2022-08-03T03:31:06;7.78;;;3.03;;
27201;SDS011;14717;46.924;15.474;2022-08-03T03:33:33;5.80;;;2.80;;
27201;SDS011;14717;46.924;15.474;2022-08-03T03:36:00;4.10;;;2.50;;
27201;SDS011;14717;46.924;15.474;2022-08-03T03:38:25;5.07;;;2.85;;
27201;SDS011;14717;46.924;15.474;2022-08-03T03:40:51;4.22;;;2.60;;
27201;SDS011;14717;46.924;15.474;2022-08-03T03:43:17;5.18;;;2.47;;
27201;SDS011;14717;46.924;15.474;2022-08-03T03:45:42;6.75;;;2.70;;
27201;SDS011;14717;46.924;15.474;2022-08-03T03:48:09;4.10;;;2.63;;
27201;SDS011;14717;46.924;15.474;2022-08-03T03:50:35;5.10;;;2.85;;
27201;SDS011;14717;46.924;15.474;2022-08-03T03:53:02;4.97;;;2.42;;
27201;SDS011;14717;46.924;15.474;2022-08-03T03:55:28;4.32;;;2.42;;
27201;SDS011;14717;46.924;15.474;2022-08-03T03:57:54;4.47;;;2.70;;
27201;SDS011;14717;46.924;15.474;2022-08-03T04:00:20;5.53;;;2.58;;
27201;SDS011;14717;46.924;15.474;2022-08-03T04:02:45;5.47;;;2.72;;
27201;SDS011;14717;46.924;15.474;2022-08-03T04:05:11;6.53;;;2.67;;
27201;SDS011;14717;46.924;15.474;2022-08-03T04:08:07;5.28;;;2.40;;
27201;SDS011;14717;46.924;15.474;2022-08-03T04:13:49;5.82;;;2.92;;
27201;SDS011;14717;46.924;15.474;2022-08-03T04:16:21;4.10;;;2.60;;
27201;SDS011;14717;46.924;15.474;2022-08-03T04:18:52;5.30;;;2.53;;
27201;SDS011;14717;46.924;15.474;2022-08-03T04:21:21;4.25;;;2.45;;
27201;SDS011;14717;46.924;15.474;2022-08-03T04:23:49;4.75;;;2.38;;
27201;SDS011;14717;46.924;15.474;2022-08-03T04:26:17;5.82;;;2.83;;
27201;SDS011;14717;46.924;15.474;2022-08-03T04:28:45;4.85;;;2.63;;
27201;SDS011;14717;46.924;15.474;2022-08-03T04:31:13;7.28;;;3.10;;
27201;SDS011;14717;46.924;15.474;2022-08-03T04:33:40;6.90;;;3.00;;
27201;SDS011;14717;46.924;15.474;2022-08-03T04:36:09;6.15;;;3.17;;
27201;SDS011;14717;46.924;15.474;2022-08-03T04:38:39;5.07;;;2.85;;
27201;SDS011;14717;46.924;15.474;2022-08-03T04:41:17;5.85;;;2.88;;
27201;SDS011;14717;46.924;15.474;2022-08-03T04:43:45;8.55;;;3.47;;
27201;SDS011;14717;46.924;15.474;2022-08-03T04:46:13;6.72;;;2.75;;
27201;SDS011;14717;46.924;15.474;2022-08-03T04:48:39;4.25;;;2.88;;
27201;SDS011;14717;46.924;15.474;2022-08-03T04:51:05;5.13;;;2.92;;
27201;SDS011;14717;46.924;15.474;2022-08-03T04:53:31;6.50;;;3.00;;
27201;SDS011;14717;46.924;15.474;2022-08-03T04:56:02;4.72;;;2.72;;
27201;SDS011;14717;46.924;15.474;2022-08-03T04:58:29;5.68;;;2.67;;
27201;SDS011;14717;46.924;15.474;2022-08-03T05:00:55;5.55;;;3.00;;
27201;SDS011;14717;46.924;15.474;2022-08-03T05:03:20;6.40;;;3.28;;
27201;SDS011;14717;46.924;15.474;2022-08-03T05:05:45;8.23;;;3.45;;
27201;SDS011;14717;46.924;15.474;2022-08-03T05:08:11;4.22;;;2.92;;
27201;SDS011;14717;46.924;15.474;2022-08-03T05:10:36;5.55;;;2.50;;
27201;SDS011;14717;46.924;15.474;2022-08-03T05:13:01;5.40;;;3.00;;
27201;SDS011;14717;46.924;15.474;2022-08-03T05:15:27;6.70;;;2.85;;
27201;SDS011;14717;46.924;15.474;2022-08-03T05:17:52;7.30;;;3.10;;
27201;SDS011;14717;46.924;15.474;2022-08-03T05:20:17;6.57;;;3.33;;
27201;SDS011;14717;46.924;15.474;2022-08-03T05:22:43;4.32;;;3.03;;
27201;SDS011;14717;46.924;15.474;2022-08-03T05:25:08;4.60;;;2.67;;
27201;SDS011;14717;46.924;15.474;2022-08-03T05:27:34;5.10;;;3.08;;
27201;SDS011;14717;46.924;15.474;2022-08-03T05:30:00;5.72;;;3.03;;
27201;SDS011;14717;46.924;15.474;2022-08-03T05:32:25;6.18;;;3.17;;
27201;SDS011;14717;46.924;15.474;2022-08-03T05:34:51;5.45;;;3.40;;
27201;SDS011;14717;46.924;15.474;2022-08-03T05:37:16;6.20;;;2.80;;
27201;SDS011;14717;46.924;15.474;2022-08-03T05:39:42;5.28;;;3.38;;
27201;SDS011;14717;46.924;15.474;2022-08-03T05:42:07;7.30;;;2.63;;
27201;SDS011;14717;46.924;15.474;2022-08-03T05:44:33;5.88;;;3.15;;
27201;SDS011;14717;46.924;15.474;2022-08-03T05:46:58;5.80;;;3.90;;
27201;SDS011;14717;46.924;15.474;2022-08-03T05:49:24;4.50;;;3.17;;
27201;SDS011;14717;46.924;15.474;2022-08-03T05:51:49;6.47;;;3.50;;
27201;SDS011;14717;46.924;15.474;2022-08-03T05:54:14;4.70;;;2.78;;
27201;SDS011;14717;46.924;15.474;2022-08-03T05:56:40;4.25;;;2.95;;
27201;SDS011;14717;46.924;15.474;2022-08-03T05:59:05;5.93;;;3.10;;
27201;SDS011;14717;46.924;15.474;2022-08-03T06:01:31;5.05;;;3.13;;
27201;SDS011;14717;46.924;15.474;2022-08-03T06:03:57;5.15;;;3.30;;
27201;SDS011;14717;46.924;15.474;2022-08-03T06:06:22;7.00;;;3.70;;
27201;SDS011;14717;46.924;15.474;2022-08-03T06:08:48;9.85;;;3.55;;
27201;SDS011;14717;46.924;15.474;2022-08-03T06:11:14;5.93;;;3.28;;
27201;SDS011;14717;46.924;15.474;2022-08-03T06:13:40;7.40;;;3.78;;
27201;SDS011;14717;46.924;15.474;2022-08-03T06:16:06;7.65;;;3.80;;
27201;SDS011;14717;46.924;15.474;2022-08-03T06:18:32;6.80;;;3.75;;
27201;SDS011;14717;46.924;15.474;2022-08-03T06:20:57;5.97;;;3.78;;
27201;SDS011;14717;46.924;15.474;2022-08-03T06:23:23;6.32;;;3.78;;
27201;SDS011;14717;46.924;15.474;2022-08-03T06:25:48;7.70;;;3.08;;
27201;SDS011;14717;46.924;15.474;2022-08-03T06:28:13;13.35;;;4.10;;
27201;SDS011;14717;46.924;15.474;2022-08-03T06:30:39;5.60;;;3.30;;
27201;SDS011;14717;46.924;15.474;2022-08-03T06:33:05;7.05;;;4.03;;
27201;SDS011;14717;46.924;15.474;2022-08-03T06:35:31;5.95;;;3.60;;
27201;SDS011;14717;46.924;15.474;2022-08-03T06:37:57;8.35;;;4.07;;
27201;SDS011;14717;46.924;15.474;2022-08-03T06:40:22;6.63;;;3.50;;
27201;SDS011;14717;46.924;15.474;2022-08-03T06:42:59;5.65;;;3.13;;
27201;SDS011;14717;46.924;15.474;2022-08-03T06:45:27;6.78;;;3.85;;
27201;SDS011;14717;46.924;15.474;2022-08-03T06:48:00;7.25;;;3.60;;
27201;SDS011;14717;46.924;15.474;2022-08-03T06:50:26;5.88;;;3.28;;
27201;SDS011;14717;46.924;15.474;2022-08-03T06:52:51;7.22;;;3.58;;
27201;SDS011;14717;46.924;15.474;2022-08-03T06:55:16;6.75;;;3.50;;
27201;SDS011;14717;46.924;15.474;2022-08-03T06:57:42;6.13;;;3.40;;
27201;SDS011;14717;46.924;15.474;2022-08-03T07:00:07;5.63;;;3.58;;
27201;SDS011;14717;46.924;15.474;2022-08-03T07:02:34;6.18;;;3.47;;
27201;SDS011;14717;46.924;15.474;2022-08-03T07:04:59;7.30;;;3.80;;
27201;SDS011;14717;46.924;15.474;2022-08-03T07:07:24;5.35;;;3.60;;
27201;SDS011;14717;46.924;15.474;2022-08-03T07:09:50;6.60;;;4.00;;
27201;SDS011;14717;46.924;15.474;2022-08-03T07:12:15;5.70;;;3.58;;
27201;SDS011;14717;46.924;15.474;2022-08-03T07:14:40;5.97;;;3.50;;
27201;SDS011;14717;46.924;15.474;2022-08-03T07:17:06;5.72;;;3.38;;
27201;SDS011;14717;46.924;15.474;2022-08-03T07:19:31;5.82;;;3.35;;
27201;SDS011;14717;46.924;15.474;2022-08-03T07:21:56;5.32;;;3.47;;
27201;SDS011;14717;46.924;15.474;2022-08-03T07:24:23;6.38;;;4.03;;
27201;SDS011;14717;46.924;15.474;2022-08-03T07:26:48;7.88;;;3.08;;
27201;SDS011;14717;46.924;15.474;2022-08-03T07:29:13;5.32;;;3.67;;
27201;SDS011;14717;46.924;15.474;2022-08-03T07:31:39;5.22;;;3.28;;
27201;SDS011;14717;46.924;15.474;2022-08-03T07:34:04;4.30;;;3.20;;
27201;SDS011;14717;46.924;15.474;2022-08-03T07:36:30;5.63;;;3.00;;
27201;SDS011;14717;46.924;15.474;2022-08-03T07:38:56;4.85;;;2.75;;
27201;SDS011;14717;46.924;15.474;2022-08-03T07:41:22;4.57;;;2.65;;
27201;SDS011;14717;46.924;15.474;2022-08-03T07:43:47;6.95;;;3.42;;
27201;SDS011;14717;46.924;15.474;2022-08-03T07:46:13;5.57;;;3.10;;
27201;SDS011;14717;46.924;15.474;2022-08-03T07:48:39;6.65;;;3.67;;
27201;SDS011;14717;46.924;15.474;2022-08-03T07:51:04;4.75;;;3.30;;
27201;SDS011;14717;46.924;15.474;2022-08-03T07:53:30;6.00;;;3.05;;
27201;SDS011;14717;46.924;15.474;2022-08-03T07:55:55;5.28;;;3.33;;
27201;SDS011;14717;46.924;15.474;2022-08-03T07:58:21;6.05;;;3.28;;
27201;SDS011;14717;46.924;15.474;2022-08-03T08:00:47;4.30;;;2.65;;
27201;SDS011;14717;46.924;15.474;2022-08-03T08:03:15;4.88;;;2.95;;
27201;SDS011;14717;46.924;15.474;2022-08-03T08:05:40;6.15;;;2.78;;
27201;SDS011;14717;46.924;15.474;2022-08-03T08:08:06;4.15;;;3.10;;
27201;SDS011;14717;46.924;15.474;2022-08-03T08:10:32;4.75;;;3.13;;
27201;SDS011;14717;46.924;15.474;2022-08-03T08:12:58;5.15;;;3.20;;
27201;SDS011;14717;46.924;15.474;2022-08-03T08:15:23;6.90;;;2.92;;
27201;SDS011;14717;46.924;15.474;2022-08-03T08:17:51;5.40;;;2.97;;
27201;SDS011;14717;46.924;15.474;2022-08-03T08:20:19;5.43;;;2.58;;
27201;SDS011;14717;46.924;15.474;2022-08-03T08:22:46;4.50;;;2.78;;
27201;SDS011;14717;46.924;15.474;2022-08-03T08:25:11;4.40;;;2.10;;
27201;SDS011;14717;46.924;15.474;2022-08-03T08:27:55;3.60;;;1.90;;
27201;SDS011;14717;46.924;15.474;2022-08-03T08:32:48;3.17;;;1.70;;
27201;SDS011;14717;46.924;15.474;2022-08-03T08:35:14;3.10;;;1.90;;
27201;SDS011;14717;46.924;15.474;2022-08-03T08:37:40;3.25;;;1.85;;
27201;SDS011;14717;46.924;15.474;2022-08-03T08:40:07;2.92;;;2.08;;
27201;SDS011;14717;46.924;15.474;2022-08-03T08:42:33;2.50;;;1.73;;
27201;SDS011;14717;46.924;15.474;2022-08-03T08:45:01;3.47;;;1.80;;
27201;SDS011;14717;46.924;15.474;2022-08-03T08:47:30;3.20;;;1.73;;
27201;SDS011;14717;46.924;15.474;2022-08-03T08:49:56;3.75;;;2.00;;
27201;SDS011;14717;46.924;15.474;2022-08-03T08:52:23;2.83;;;2.22;;
27201;SDS011;14717;46.924;15.474;2022-08-03T08:54:51;2.83;;;1.80;;
27201;SDS011;14717;46.924;15.474;2022-08-03T08:59:55;2.92;;;1.73;;
27201;SDS011;14717;46.924;15.474;2022-08-03T09:02:24;4.65;;;2.40;;
27201;SDS011;14717;46.924;15.474;2022-08-03T09:04:50;3.38;;;1.85;;
27201;SDS011;14717;46.924;15.474;2022-08-03T09:07:16;3.35;;;2.10;;
27201;SDS011;14717;46.924;15.474;2022-08-03T09:09:42;3.67;;;2.10;;
27201;SDS011;14717;46.924;15.474;2022-08-03T09:12:08;3.75;;;1.95;;
27201;SDS011;14717;46.924;15.474;2022-08-03T09:14:33;2.90;;;2.33;;
27201;SDS011;14717;46.924;15.474;2022-08-03T09:17:00;2.80;;;2.10;;
27201;SDS011;14717;46.924;15.474;2022-08-03T09:19:27;3.22;;;2.30;;
27201;SDS011;14717;46.924;15.474;2022-08-03T09:24:35;5.45;;;2.20;;
27201;SDS011;14717;46.924;15.474;2022-08-03T09:27:01;3.35;;;1.98;;
27201;SDS011;14717;46.924;15.474;2022-08-03T09:29:31;2.95;;;2.10;;
27201;SDS011;14717;46.924;15.474;2022-08-03T09:32:01;3.75;;;2.00;;
27201;SDS011;14717;46.924;15.474;2022-08-03T09:34:27;4.35;;;2.40;;
27201;SDS011;14717;46.924;15.474;2022-08-03T09:36:53;4.78;;;1.92;;
27201;SDS011;14717;46.924;15.474;2022-08-03T09:39:23;4.00;;;2.17;;
27201;SDS011;14717;46.924;15.474;2022-08-03T09:42:04;5.00;;;2.33;;
27201;SDS011;14717;46.924;15.474;2022-08-03T09:44:35;3.45;;;2.00;;
27201;SDS011;14717;46.924;15.474;2022-08-03T09:47:09;3.88;;;2.33;;
27201;SDS011;14717;46.924;15.474;2022-08-03T09:49:36;4.53;;;2.15;;
27201;SDS011;14717;46.924;15.474;2022-08-03T09:52:12;3.40;;;2.00;;
27201;SDS011;14717;46.924;15.474;2022-08-03T09:54:46;2.70;;;1.77;;
27201;SDS011;14717;46.924;15.474;2022-08-03T09:57:22;2.53;;;1.73;;
27201;SDS011;14717;46.924;15.474;2022-08-03T09:59:49;2.78;;;2.00;;
27201;SDS011;14717;46.924;15.474;2022-08-03T10:02:23;2.20;;;1.70;;
27201;SDS011;14717;46.924;15.474;2022-08-03T10:04:50;2.42;;;1.58;;
27201;SDS011;14717;46.924;15.474;2022-08-03T10:07:17;2.40;;;1.80;;
27201;SDS011;14717;46.924;15.474;2022-08-03T10:09:54;4.38;;;1.90;;
27201;SDS011;14717;46.924;15.474;2022-08-03T10:12:21;2.58;;;1.80;;
27201;SDS011;14717;46.924;15.474;2022-08-03T10:14:48;2.85;;;1.83;;
27201;SDS011;14717;46.924;15.474;2022-08-03T10:17:13;3.65;;;1.70;;
27201;SDS011;14717;46.924;15.474;2022-08-03T10:19:39;2.40;;;1.70;;
27201;SDS011;14717;46.924;15.474;2022-08-03T10:24:44;5.40;;;1.83;;
27201;SDS011;14717;46.924;15.474;2022-08-03T10:27:13;2.95;;;1.73;;
27201;SDS011;14717;46.924;15.474;2022-08-03T10:29:41;3.03;;;1.60;;
27201;SDS011;14717;46.924;15.474;2022-08-03T10:32:19;3.13;;;1.88;;
27201;SDS011;14717;46.924;15.474;2022-08-03T10:34:50;2.45;;;1.73;;
27201;SDS011;14717;46.924;15.474;2022-08-03T10:37:18;2.20;;;1.60;;
27201;SDS011;14717;46.924;15.474;2022-08-03T10:39:47;2.85;;;1.65;;
27201;SDS011;14717;46.924;15.474;2022-08-03T10:42:21;3.15;;;1.65;;
27201;SDS011;14717;46.924;15.474;2022-08-03T10:44:49;2.22;;;1.60;;
27201;SDS011;14717;46.924;15.474;2022-08-03T10:49:47;2.53;;;1.57;;
27201;SDS011;14717;46.924;15.474;2022-08-03T10:52:13;2.97;;;1.80;;
27201;SDS011;14717;46.924;15.474;2022-08-03T10:54:39;2.85;;;1.70;;
27201;SDS011;14717;46.924;15.474;2022-08-03T11:00:11;2.88;;;1.80;;
27201;SDS011;14717;46.924;15.474;2022-08-03T11:05:33;2.60;;;1.73;;
27201;SDS011;14717;46.924;15.474;2022-08-03T11:08:29;2.92;;;1.60;;
27201;SDS011;14717;46.924;15.474;2022-08-03T11:11:23;3.50;;;1.73;;
27201;SDS011;14717;46.924;15.474;2022-08-03T11:13:58;5.03;;;1.60;;
27201;SDS011;14717;46.924;15.474;2022-08-03T11:16:27;2.63;;;1.75;;
27201;SDS011;14717;46.924;15.474;2022-08-03T11:18:58;2.78;;;1.77;;
27201;SDS011;14717;46.924;15.474;2022-08-03T11:35:22;3.00;;;1.65;;
27201;SDS011;14717;46.924;15.474;2022-08-03T11:46:02;2.97;;;1.55;;
27201;SDS011;14717;46.924;15.474;2022-08-03T11:48:35;3.42;;;1.40;;
27201;SDS011;14717;46.924;15.474;2022-08-03T11:51:04;2.20;;;1.50;;
27201;SDS011;14717;46.924;15.474;2022-08-03T11:53:43;4.63;;;1.85;;
27201;SDS011;14717;46.924;15.474;2022-08-03T11:56:08;4.57;;;1.60;;
27201;SDS011;14717;46.924;15.474;2022-08-03T11:58:34;4.43;;;2.00;;
27201;SDS011;14717;46.924;15.474;2022-08-03T12:01:03;3.90;;;1.38;;
27201;SDS011;14717;46.924;15.474;2022-08-03T12:03:33;2.28;;;1.40;;
27201;SDS011;14717;46.924;15.474;2022-08-03T12:05:59;3.13;;;1.50;;
27201;SDS011;14717;46.924;15.474;2022-08-03T12:08:32;2.33;;;1.45;;
27201;SDS011;14717;46.924;15.474;2022-08-03T12:10:59;2.20;;;1.33;;
27201;SDS011;14717;46.924;15.474;2022-08-03T12:13:26;5.05;;;1.55;;
27201;SDS011;14717;46.924;15.474;2022-08-03T12:16:00;3.10;;;1.60;;
27201;SDS011;14717;46.924;15.474;2022-08-03T12:18:26;2.00;;;1.40;;
27201;SDS011;14717;46.924;15.474;2022-08-03T12:20:52;2.30;;;1.45;;
27201;SDS011;14717;46.924;15.474;2022-08-03T12:23:27;3.50;;;1.30;;
27201;SDS011;14717;46.924;15.474;2022-08-03T12:25:53;1.90;;;1.40;;
27201;SDS011;14717;46.924;15.474;2022-08-03T12:28:26;2.58;;;1.10;;
27201;SDS011;14717;46.924;15.474;2022-08-03T12:30:51;2.13;;;1.33;;
27201;SDS011;14717;46.924;15.474;2022-08-03T12:33:24;2.38;;;1.40;;
27201;SDS011;14717;46.924;15.474;2022-08-03T12:36:01;4.10;;;1.67;;
27201;SDS011;14717;46.924;15.474;2022-08-03T12:38:28;2.78;;;1.67;;
27201;SDS011;14717;46.924;15.474;2022-08-03T12:40:59;2.17;;;1.50;;
27201;SDS011;14717;46.924;15.474;2022-08-03T12:43:26;3.35;;;1.50;;
27201;SDS011;14717;46.924;15.474;2022-08-03T12:46:05;3.13;;;1.60;;
27201;SDS011;14717;46.924;15.474;2022-08-03T12:48:31;1.92;;;1.42;;
27201;SDS011;14717;46.924;15.474;2022-08-03T12:51:06;2.78;;;1.60;;
27201;SDS011;14717;46.924;15.474;2022-08-03T12:53:33;3.38;;;1.60;;
27201;SDS011;14717;46.924;15.474;2022-08-03T12:56:03;2.30;;;1.85;;
27201;SDS011;14717;46.924;15.474;2022-08-03T12:58:30;2.75;;;1.63;;
27201;SDS011;14717;46.924;15.474;2022-08-03T13:00:57;2.88;;;1.63;;
27201;SDS011;14717;46.924;15.474;2022-08-03T13:03:23;2.35;;;1.60;;
27201;SDS011;14717;46.924;15.474;2022-08-03T13:05:49;3.63;;;1.60;;
27201;SDS011;14717;46.924;15.474;2022-08-03T13:08:18;2.38;;;1.30;;
27201;SDS011;14717;46.924;15.474;2022-08-03T13:10:44;3.45;;;1.70;;
27201;SDS011;14717;46.924;15.474;2022-08-03T13:13:10;3.25;;;1.80;;
27201;SDS011;14717;46.924;15.474;2022-08-03T13:15:36;3.28;;;1.90;;
27201;SDS011;14717;46.924;15.474;2022-08-03T13:18:01;1.80;;;1.40;;
27201;SDS011;14717;46.924;15.474;2022-08-03T13:20:27;3.03;;;1.60;;
27201;SDS011;14717;46.924;15.474;2022-08-03T13:22:52;3.10;;;1.52;;
27201;SDS011;14717;46.924;15.474;2022-08-03T13:25:18;2.10;;;1.40;;
27201;SDS011;14717;46.924;15.474;2022-08-03T13:27:44;2.00;;;1.40;;
27201;SDS011;14717;46.924;15.474;2022-08-03T13:30:10;4.03;;;1.42;;
27201;SDS011;14717;46.924;15.474;2022-08-03T13:32:36;2.13;;;1.30;;
27201;SDS011;14717;46.924;15.474;2022-08-03T13:35:02;2.15;;;1.45;;
27201;SDS011;14717;46.924;15.474;2022-08-03T13:37:28;2.65;;;1.50;;
27201;SDS011;14717;46.924;15.474;2022-08-03T13:39:56;2.30;;;1.38;;
27201;SDS011;14717;46.924;15.474;2022-08-03T13:42:21;2.80;;;1.65;;
27201;SDS011;14717;46.924;15.474;2022-08-03T13:44:47;3.20;;;1.58;;
27201;SDS011;14717;46.924;15.474;2022-08-03T13:47:12;2.60;;;1.60;;
27201;SDS011;14717;46.924;15.474;2022-08-03T13:49:38;5.35;;;1.83;;
27201;SDS011;14717;46.924;15.474;2022-08-03T13:52:03;2.15;;;1.40;;
27201;SDS011;14717;46.924;15.474;2022-08-03T13:54:29;1.80;;;1.25;;
27201;SDS011;14717;46.924;15.474;2022-08-03T13:56:54;2.13;;;1.30;;
27201;SDS011;14717;46.924;15.474;2022-08-03T13:59:21;3.28;;;1.50;;
27201;SDS011;14717;46.924;15.474;2022-08-03T14:01:48;2.13;;;1.35;;
27201;SDS011;14717;46.924;15.474;2022-08-03T14:04:14;2.08;;;1.45;;
27201;SDS011;14717;46.924;15.474;2022-08-03T14:06:40;2.20;;;1.40;;
27201;SDS011;14717;46.924;15.474;2022-08-03T14:09:09;2.63;;;1.42;;
27201;SDS011;14717;46.924;15.474;2022-08-03T14:11:38;2.50;;;1.52;;
27201;SDS011;14717;46.924;15.474;2022-08-03T14:14:04;2.60;;;1.63;;
27201;SDS011;14717;46.924;15.474;2022-08-03T14:16:29;3.60;;;1.40;;
27201;SDS011;14717;46.924;15.474;2022-08-03T14:18:55;2.65;;;1.35;;
27201;SDS011;14717;46.924;15.474;2022-08-03T14:21:20;2.58;;;1.35;;
27201;SDS011;14717;46.924;15.474;2022-08-03T14:23:45;1.92;;;1.48;;
27201;SDS011;14717;46.924;15.474;2022-08-03T14:26:11;1.77;;;1.30;;
27201;SDS011;14717;46.924;15.474;2022-08-03T14:28:38;2.85;;;1.55;;
27201;SDS011;14717;46.924;15.474;2022-08-03T14:31:04;2.60;;;1.38;;
27201;SDS011;14717;46.924;15.474;2022-08-03T14:33:30;2.13;;;1.35;;
27201;SDS011;14717;46.924;15.474;2022-08-03T14:35:55;2.88;;;1.30;;
27201;SDS011;14717;46.924;15.474;2022-08-03T14:38:21;2.58;;;1.60;;
27201;SDS011;14717;46.924;15.474;2022-08-03T14:40:47;2.35;;;1.52;;
27201;SDS011;14717;46.924;15.474;2022-08-03T14:43:13;2.22;;;1.60;;
27201;SDS011;14717;46.924;15.474;2022-08-03T14:45:39;2.17;;;1.45;;
27201;SDS011;14717;46.924;15.474;2022-08-03T14:48:05;1.90;;;1.38;;
27201;SDS011;14717;46.924;15.474;2022-08-03T14:50:31;2.60;;;1.40;;
27201;SDS011;14717;46.924;15.474;2022-08-03T14:52:56;3.47;;;1.40;;
27201;SDS011;14717;46.924;15.474;2022-08-03T14:55:22;2.65;;;1.90;;
27201;SDS011;14717;46.924;15.474;2022-08-03T14:57:47;2.90;;;1.70;;
27201;SDS011;14717;46.924;15.474;2022-08-03T15:00:13;3.72;;;1.38;;
27201;SDS011;14717;46.924;15.474;2022-08-03T15:02:38;1.85;;;1.30;;
27201;SDS011;14717;46.924;15.474;2022-08-03T15:05:04;1.92;;;1.33;;
27201;SDS011;14717;46.924;15.474;2022-08-03T15:07:30;2.15;;;1.42;;
27201;SDS011;14717;46.924;15.474;2022-08-03T15:09:55;1.85;;;1.35;;
27201;SDS011;14717;46.924;15.474;2022-08-03T15:12:21;2.13;;;1.42;;
27201;SDS011;14717;46.924;15.474;2022-08-03T15:14:46;1.90;;;1.38;;
27201;SDS011;14717;46.924;15.474;2022-08-03T15:17:11;2.00;;;1.40;;
27201;SDS011;14717;46.924;15.474;2022-08-03T15:19:37;3.00;;;1.40;;
27201;SDS011;14717;46.924;15.474;2022-08-03T15:22:03;4.13;;;1.33;;
27201;SDS011;14717;46.924;15.474;2022-08-03T15:24:29;2.42;;;1.38;;
27201;SDS011;14717;46.924;15.474;2022-08-03T15:26:54;2.58;;;1.40;;
27201;SDS011;14717;46.924;15.474;2022-08-03T15:29:20;4.05;;;1.50;;
27201;SDS011;14717;46.924;15.474;2022-08-03T15:31:45;2.05;;;1.30;;
27201;SDS011;14717;46.924;15.474;2022-08-03T15:34:10;2.83;;;1.42;;
27201;SDS011;14717;46.924;15.474;2022-08-03T15:36:36;3.22;;;1.70;;
27201;SDS011;14717;46.924;15.474;2022-08-03T15:39:02;2.72;;;1.50;;
27201;SDS011;14717;46.924;15.474;2022-08-03T15:41:28;2.88;;;1.42;;